Terminal Aerodrome Forecast
Issued by NWS

Home | Current Version | Previous Version | Text Only | Print | Product List | Glossary On
Versions: 1 2 3 4 5 6 7 8 9 10 11 12 13 14 15 16 17 18 19 20 21 22 23 24 25 26 27 28 29 30
000
FTUS45 KGJT 200759 AAA
TAFASE
TAF AMD
KASE 200759Z 2008/2106 12006KT P6SM VCSH SCT012 OVC070
      TEMPO 2008/2010 -SHRA BKN012
     FM201000 18003KT P6SM VCSH BKN070
     FM201800 36006KT P6SM BKN100
     FM202100 32007KT P6SM VCTS SCT080CB BKN100
     FM210300 19006KT P6SM BKN180=

USA.gov is the U.S. government's official web portal to all federal, state and local government web resources and services.